Terminal Aerodrome Forecast
Issued by NWS Aberdeen, SD

Current Version | Previous Version | Text Only | Print | Product List | Glossary On
Versions: 1 2 3 4 5 6 7 8 9 10 11 12 13 14 15 16 17 18 19 20 21 22 23 24 25 26 27 28 29 30 31 32 33 34 35 36 37 38 39 40 41 42 43 44 45 46 47 48 49 50
185
FTUS43 KABR 220613 AAA
TAFABR
TAF AMD
KABR 220613Z 2206/2306 04005KT P6SM VCTS SCT080CB BKN200
     FM220800 05006KT P6SM SCT250
     FM221100 05007KT P6SM BKN010
     FM221400 09008KT P6SM SCT015
     FM221700 15010G18KT P6SM SCT090
     FM222100 20012KT P6SM SCT200
     FM230300 35007KT P6SM BKN050=

USA.gov is the U.S. government's official web portal to all federal, state and local government web resources and services.